Time;durP1;ratioP1;P1;durP2;ratioP2;P2;SDS_P1;SDS_P2;PMS_P1;PMS_P2;Temp;Humidity;BMP_temperature;BMP_pressure;BME280_temperature;BME280_humidity;BME280_pressure;Samples;Min_cycle;Max_cycle;Signal;HPM_P1;HPM_P2
2021/01/12 00:00:10;;;;;;;14.27;5.03;;;;;;;-12.90;89.68;100677.81;4987878;28;20125;-63
2021/01/12 00:03:00;;;;;;;11.75;5.25;;;;;;;-12.88;89.64;100686.25;4990583;28;20043;-64
2021/01/12 00:05:47;;;;;;;9.95;4.93;;;;;;;-12.91;88.83;100676.13;4993226;28;20402;-66
2021/01/12 00:08:33;;;;;;;13.23;5.60;;;;;;;-12.89;89.70;100684.56;4992352;28;20449;-64
2021/01/12 00:11:21;;;;;;;13.95;5.40;;;;;;;-12.88;89.46;100676.19;4990437;28;20653;-64
2021/01/12 00:17:13;;;;;;;16.52;5.45;;;;;;;-12.84;89.58;100669.59;4992967;28;20054;-64
2021/01/12 00:20:01;;;;;;;13.95;5.45;;;;;;;-12.85;89.21;100668.72;4992275;28;20050;-63
2021/01/12 00:22:47;;;;;;;11.20;5.05;;;;;;;-12.81;89.66;100678.09;4990453;28;20050;-64
2021/01/12 00:25:33;;;;;;;13.68;5.97;;;;;;;-12.81;89.54;100672.19;4988206;28;20150;-64
2021/01/12 00:28:20;;;;;;;14.23;5.20;;;;;;;-12.79;89.28;100673.94;5001210;28;20053;-64
2021/01/12 00:31:06;;;;;;;11.43;5.07;;;;;;;-12.80;89.62;100678.94;4987305;28;20062;-64
2021/01/12 00:33:53;;;;;;;15.38;5.88;;;;;;;-12.80;89.46;100668.88;4992932;28;20046;-64
2021/01/12 00:36:40;;;;;;;10.98;4.78;;;;;;;-12.76;89.68;100675.72;4989388;28;20050;-64
2021/01/12 00:39:27;;;;;;;13.00;5.75;;;;;;;-12.74;88.57;100676.59;4986975;28;20042;-65
2021/01/12 00:42:14;;;;;;;14.75;5.03;;;;;;;-12.74;89.04;100681.63;4987796;28;20054;-64
2021/01/12 00:45:01;;;;;;;14.50;5.72;;;;;;;-12.73;89.63;100675.78;4984901;28;20066;-64
2021/01/12 00:47:47;;;;;;;12.07;5.18;;;;;;;-12.73;89.33;100660.66;4991152;28;20096;-64
2021/01/12 00:50:33;;;;;;;12.45;5.28;;;;;;;-12.72;89.50;100663.25;4986019;28;20429;-64
2021/01/12 00:53:20;;;;;;;12.95;4.68;;;;;;;-12.69;88.83;100658.28;4986708;28;20109;-64
2021/01/12 00:56:11;;;;;;;10.20;4.70;;;;;;;-12.70;89.13;100664.13;5001553;28;20042;-64
2021/01/12 00:58:58;;;;;;;10.77;5.00;;;;;;;-12.71;89.30;100656.53;4987468;28;20078;-64
2021/01/12 01:01:45;;;;;;;10.65;4.93;;;;;;;-12.68;89.06;100662.50;4989683;28;20101;-64
2021/01/12 01:04:32;;;;;;;12.93;5.38;;;;;;;-12.65;89.72;100664.25;4987623;28;20046;-64
2021/01/12 01:07:18;;;;;;;11.85;5.03;;;;;;;-12.65;89.22;100657.56;4976889;28;20042;-63
2021/01/12 01:10:05;;;;;;;14.32;5.72;;;;;;;-12.65;88.75;100657.56;4990106;28;20058;-64
2021/01/12 01:12:52;;;;;;;10.43;4.75;;;;;;;-12.65;88.53;100655.03;4989323;28;20509;-64
2021/01/12 01:15:39;;;;;;;10.98;4.50;;;;;;;-12.64;88.65;100658.41;4990139;28;20053;-64
2021/01/12 01:18:27;;;;;;;11.02;4.95;;;;;;;-12.62;89.07;100654.28;4992168;28;20057;-64
2021/01/12 01:21:13;;;;;;;11.25;4.90;;;;;;;-12.60;89.88;100656.84;4992109;28;20132;-64
2021/01/12 01:24:00;;;;;;;10.07;4.78;;;;;;;-12.63;89.13;100651.69;4992161;28;20043;-64
2021/01/12 01:26:47;;;;;;;16.60;4.57;;;;;;;-12.63;89.76;100654.22;4987542;28;20098;-64
2021/01/12 01:29:33;;;;;;;13.60;4.38;;;;;;;-12.65;88.82;100652.53;4992063;28;20073;-64
2021/01/12 01:32:20;;;;;;;11.07;4.72;;;;;;;-12.60;89.76;100646.75;4988987;28;20050;-64
2021/01/12 01:35:07;;;;;;;13.50;5.03;;;;;;;-12.61;89.90;100640.88;4988887;28;20497;-64
2021/01/12 01:37:54;;;;;;;14.38;5.22;;;;;;;-12.62;89.12;100641.69;4990046;28;20058;-64
2021/01/12 01:40:41;;;;;;;11.15;4.93;;;;;;;-12.61;89.77;100642.53;4991603;28;20062;-64
2021/01/12 01:43:27;;;;;;;14.77;4.57;;;;;;;-12.63;88.78;100641.63;4985837;28;20065;-64
2021/01/12 01:46:14;;;;;;;9.85;4.35;;;;;;;-12.64;89.06;100643.31;4986329;28;20414;-64
2021/01/12 01:49:01;;;;;;;15.55;4.70;;;;;;;-12.63;88.52;100639.97;4982987;28;20497;-64
2021/01/12 01:51:48;;;;;;;14.82;5.45;;;;;;;-12.67;89.47;100631.50;4991494;28;20445;-64
2021/01/12 01:54:35;;;;;;;13.70;5.45;;;;;;;-12.68;89.03;100628.91;4989923;28;20054;-64
2021/01/12 01:57:21;;;;;;;10.43;3.80;;;;;;;-12.69;89.35;100627.22;4990915;28;20131;-64
2021/01/12 02:00:08;;;;;;;11.05;4.40;;;;;;;-12.74;88.64;100613.66;4984811;28;20050;-64
2021/01/12 02:03:14;;;;;;;11.63;4.35;;;;;;;-12.71;89.38;100623.81;4997837;28;20388;-64
2021/01/12 02:06:11;;;;;;;12.07;4.60;;;;;;;-12.75;89.29;100619.50;4990231;28;20056;-64
2021/01/12 02:09:30;;;;;;;11.57;4.00;;;;;;;-12.72;88.69;100617.94;4991298;28;20144;-64
2021/01/12 02:12:23;;;;;;;7.43;4.20;;;;;;;-12.75;88.57;100614.47;4991393;28;20374;-64
2021/01/12 02:15:11;;;;;;;9.07;4.05;;;;;;;-12.77;88.32;100613.53;4989673;28;20136;-64
2021/01/12 02:17:58;;;;;;;9.52;4.15;;;;;;;-12.78;88.90;100614.38;4991080;28;20534;-64
2021/01/12 02:20:45;;;;;;;9.68;4.25;;;;;;;-12.79;88.53;100610.16;4991461;28;20109;-65
2021/01/12 02:23:47;;;;;;;10.75;3.60;;;;;;;-12.80;88.52;100608.44;4990963;28;20141;-64
2021/01/12 02:26:34;;;;;;;9.98;4.40;;;;;;;-12.83;88.43;100605.84;4988183;28;20116;-64
2021/01/12 02:29:20;;;;;;;11.20;4.70;;;;;;;-12.85;88.39;100607.47;4982655;28;20141;-66
2021/01/12 02:32:07;;;;;;;7.85;3.80;;;;;;;-12.88;88.55;100598.16;4985510;28;20081;-65
2021/01/12 02:34:57;;;;;;;9.35;3.60;;;;;;;-12.89;88.54;100598.13;4988691;28;20089;-64
2021/01/12 02:37:45;;;;;;;9.00;3.63;;;;;;;-12.89;87.98;100606.53;4995919;28;20466;-64
2021/01/12 02:40:34;;;;;;;9.88;3.63;;;;;;;-12.94;87.98;100595.47;4972607;28;20075;-63
2021/01/12 02:43:20;;;;;;;8.05;3.53;;;;;;;-12.98;88.41;100601.22;4988318;28;20050;-63
2021/01/12 02:46:07;;;;;;;9.45;3.70;;;;;;;-13.01;88.68;100601.97;4987927;28;20050;-64
2021/01/12 02:48:55;;;;;;;8.77;3.88;;;;;;;-13.08;88.50;100602.63;4985496;28;20058;-63
2021/01/12 02:51:41;;;;;;;8.63;3.60;;;;;;;-13.08;88.53;100592.56;4986976;28;20058;-64
2021/01/12 02:54:28;;;;;;;9.00;3.83;;;;;;;-13.14;87.67;100594.91;4990411;28;20414;-65
2021/01/12 02:57:14;;;;;;;8.30;3.53;;;;;;;-13.14;88.54;100594.06;4982751;28;20105;-64
2021/01/12 03:00:05;;;;;;;7.80;3.08;;;;;;;-13.14;88.57;100589.03;4987603;28;20062;-64
2021/01/12 03:02:52;;;;;;;8.15;4.13;;;;;;;-13.19;88.13;100597.28;4986046;28;20145;-64
2021/01/12 03:05:38;;;;;;;9.18;3.50;;;;;;;-13.20;87.60;100594.72;4987846;28;20069;-64
2021/01/12 03:08:25;;;;;;;6.95;3.17;;;;;;;-13.21;88.35;100595.53;4987944;28;20433;-65
2021/01/12 03:11:11;;;;;;;8.43;3.58;;;;;;;-13.25;87.58;100594.59;4985909;28;20105;-65
2021/01/12 03:13:58;;;;;;;7.28;3.75;;;;;;;-13.30;87.59;100601.16;4991790;28;20141;-64
2021/01/12 03:16:45;;;;;;;8.52;2.95;;;;;;;-13.31;88.17;100604.50;4994069;28;20054;-64
2021/01/12 03:19:31;;;;;;;8.48;3.78;;;;;;;-13.29;87.67;100597.00;4994213;28;20057;-63
2021/01/12 03:22:17;;;;;;;9.00;4.15;;;;;;;-13.31;88.11;100596.94;4994177;28;20081;-65
2021/01/12 03:25:05;;;;;;;10.50;3.28;;;;;;;-13.33;87.70;100607.78;4994207;28;20050;-64
2021/01/12 03:27:51;;;;;;;8.90;3.25;;;;;;;-13.38;88.41;100599.25;4993871;28;20453;-64
2021/01/12 03:30:37;;;;;;;6.93;3.65;;;;;;;-13.33;87.74;100605.28;5007761;28;20141;-65
2021/01/12 03:33:24;;;;;;;8.18;3.65;;;;;;;-13.35;87.76;100602.69;4993886;28;20046;-64
2021/01/12 03:36:10;;;;;;;7.75;3.30;;;;;;;-13.38;87.83;100597.59;4990600;28;20104;-66
2021/01/12 03:38:57;;;;;;;6.85;2.75;;;;;;;-13.36;87.94;100601.00;4997815;28;20105;-64
2021/01/12 03:41:43;;;;;;;12.40;4.22;;;;;;;-13.43;87.87;100597.44;4993547;28;20132;-65
2021/01/12 03:44:30;;;;;;;9.35;3.38;;;;;;;-13.38;87.97;100610.16;4993850;28;20097;-64
2021/01/12 03:47:17;;;;;;;9.18;4.03;;;;;;;-13.39;88.56;100607.59;4993076;28;20061;-64
2021/01/12 03:50:04;;;;;;;6.13;3.10;;;;;;;-13.38;88.14;100606.81;4993255;28;20054;-64
2021/01/12 03:52:54;;;;;;;5.85;2.83;;;;;;;-13.43;88.49;100607.50;4993765;28;20642;-64
2021/01/12 03:55:41;;;;;;;9.90;4.95;;;;;;;-13.45;87.81;100609.09;4993545;28;20050;-64
2021/01/12 03:58:27;;;;;;;5.38;3.10;;;;;;;-13.44;88.57;100610.81;4993549;28;20078;-65
2021/01/12 04:01:14;;;;;;;7.00;2.88;;;;;;;-13.46;88.07;100611.59;4993453;28;20089;-64
2021/01/12 04:04:01;;;;;;;8.00;3.65;;;;;;;-13.45;88.01;100601.56;4992907;28;20100;-64
2021/01/12 04:06:48;;;;;;;5.97;2.88;;;;;;;-13.48;87.83;100595.59;4993191;28;20073;-65
2021/01/12 04:09:34;;;;;;;7.53;3.20;;;;;;;-13.45;88.21;100598.19;4993177;28;20050;-64
2021/01/12 04:12:21;;;;;;;7.40;3.15;;;;;;;-13.44;87.96;100603.25;5000971;28;20054;-64
2021/01/12 04:15:07;;;;;;;6.90;3.00;;;;;;;-13.43;88.42;100597.44;4992766;28;20435;-64
2021/01/12 04:17:54;;;;;;;12.00;3.63;;;;;;;-13.50;87.75;100595.53;4992682;28;20101;-65
2021/01/12 04:20:41;;;;;;;9.25;3.88;;;;;;;-13.48;88.31;100600.59;4992823;28;20054;-65
2021/01/12 04:23:28;;;;;;;7.63;2.85;;;;;;;-13.51;87.74;100600.53;4991956;28;20043;-64
2021/01/12 04:26:14;;;;;;;8.30;3.60;;;;;;;-13.53;87.65;100599.63;4987671;28;20128;-65
2021/01/12 04:29:01;;;;;;;7.97;3.03;;;;;;;-13.54;87.79;100608.81;4984469;28;20057;-64
2021/01/12 04:31:48;;;;;;;7.75;3.20;;;;;;;-13.59;87.76;100617.91;4989651;28;20516;-65
2021/01/12 04:34:34;;;;;;;10.95;3.55;;;;;;;-13.61;87.69;100619.53;4992415;28;20038;-64
2021/01/12 04:37:20;;;;;;;6.63;3.60;;;;;;;-13.59;87.61;100622.06;5004123;28;20078;-64
2021/01/12 04:40:08;;;;;;;8.40;3.25;;;;;;;-13.61;87.27;100621.19;4992554;28;20090;-68
2021/01/12 04:42:58;;;;;;;8.80;3.63;;;;;;;-13.70;87.17;100627.63;4989522;28;20081;-64
2021/01/12 04:45:44;;;;;;;7.43;3.42;;;;;;;-13.75;86.68;100624.09;4989544;28;20057;-64
2021/01/12 04:48:30;;;;;;;6.35;3.17;;;;;;;-13.75;87.10;100628.28;4986957;28;20047;-64
2021/01/12 04:51:17;;;;;;;6.90;2.90;;;;;;;-13.82;86.67;100622.19;5001693;28;20449;-64
2021/01/12 04:54:04;;;;;;;9.40;3.80;;;;;;;-13.82;86.90;100623.84;4991789;28;20078;-66
2021/01/12 04:56:54;;;;;;;7.28;3.28;;;;;;;-13.91;86.85;100614.34;4987750;28;20147;-65
2021/01/12 04:59:41;;;;;;;7.35;3.42;;;;;;;-13.91;86.29;100624.41;5003210;28;20090;-64
2021/01/12 05:02:31;;;;;;;5.22;2.85;;;;;;;-13.92;86.66;100630.25;4987385;28;20081;-64
2021/01/12 05:05:17;;;;;;;6.28;3.05;;;;;;;-13.92;86.57;100636.94;4985738;28;20107;-65
2021/01/12 05:08:09;;;;;;;10.43;3.70;;;;;;;-13.94;86.25;100641.91;4988960;28;20046;-64
2021/01/12 05:10:59;;;;;;;5.65;3.17;;;;;;;-14.02;86.10;100628.25;4984346;28;20042;-65
2021/01/12 05:13:47;;;;;;;6.13;3.25;;;;;;;-14.06;86.62;100629.78;4983468;28;20433;-65
2021/01/12 05:16:56;;;;;;;8.65;3.13;;;;;;;-14.15;86.67;100623.59;4991811;28;20050;-65
2021/01/12 05:19:50;;;;;;;5.00;2.58;;;;;;;-14.15;86.59;100626.13;4991583;28;20054;-64
2021/01/12 05:22:40;;;;;;;6.32;3.70;;;;;;;-14.24;86.40;100635.09;4989229;28;20505;-64
2021/01/12 05:25:33;;;;;;;6.13;2.95;;;;;;;-14.29;86.21;100638.22;4991929;28;20145;-64
2021/01/12 05:28:20;;;;;;;6.10;2.88;;;;;;;-14.31;86.20;100632.28;4989004;28;20553;-64
2021/01/12 05:31:11;;;;;;;9.32;3.22;;;;;;;-14.36;86.22;100642.19;4988698;28;20046;-64
2021/01/12 05:34:09;;;;;;;7.07;3.40;;;;;;;-14.43;85.93;100641.91;4985429;28;20414;-64
2021/01/12 05:36:56;;;;;;;7.50;2.90;;;;;;;-14.53;85.87;100639.09;5001632;28;20104;-64
2021/01/12 05:39:43;;;;;;;6.05;3.60;;;;;;;-14.59;86.17;100638.91;4988723;28;20135;-64
2021/01/12 05:42:30;;;;;;;6.90;2.47;;;;;;;-14.65;85.41;100643.72;4987211;28;20050;-65
2021/01/12 05:45:17;;;;;;;6.20;2.80;;;;;;;-14.70;86.17;100635.16;4991235;28;20516;-64
2021/01/12 05:48:08;;;;;;;6.65;2.72;;;;;;;-14.75;86.18;100631.63;4987110;28;20082;-64
2021/01/12 05:50:57;;;;;;;6.70;3.25;;;;;;;-14.80;85.77;100640.66;4985734;28;20050;-64
2021/01/12 05:53:46;;;;;;;7.18;3.38;;;;;;;-14.79;85.99;100644.88;4986403;28;20112;-64
2021/01/12 05:56:34;;;;;;;6.80;3.20;;;;;;;-14.84;85.67;100652.22;4989078;28;20088;-64
2021/01/12 05:59:24;;;;;;;7.38;3.45;;;;;;;-14.90;84.84;100654.53;4980810;28;20051;-63
2021/01/12 06:02:16;;;;;;;7.25;3.42;;;;;;;-15.09;85.05;100658.00;4986864;28;20081;-64
2021/01/12 06:05:03;;;;;;;5.28;2.80;;;;;;;-15.22;84.50;100649.97;4989108;28;20379;-64
2021/01/12 06:07:50;;;;;;;6.13;2.42;;;;;;;-15.50;82.98;100646.41;4993656;28;20038;-65
2021/01/12 06:10:39;;;;;;;5.03;2.80;;;;;;;-15.65;83.43;100644.19;4988775;28;20556;-64
2021/01/12 06:13:34;;;;;;;4.35;2.80;;;;;;;-15.91;83.45;100642.28;4985133;28;20049;-65
2021/01/12 06:16:29;;;;;;;6.30;2.75;;;;;;;-16.00;83.91;100647.75;4987936;28;20097;-64
2021/01/12 06:19:21;;;;;;;5.93;2.65;;;;;;;-16.14;83.75;100646.34;4989769;28;20382;-64
2021/01/12 06:22:16;;;;;;;6.70;3.08;;;;;;;-16.23;84.39;100656.84;4986024;28;20387;-64
2021/01/12 06:25:07;;;;;;;6.28;2.45;;;;;;;-16.29;84.34;100669.94;4978867;28;20050;-64
2021/01/12 06:27:53;;;;;;;7.75;2.75;;;;;;;-16.36;83.51;100673.00;4986669;28;20286;-64
2021/01/12 06:30:42;;;;;;;6.15;2.95;;;;;;;-16.37;84.39;100671.28;4987954;28;20050;-65
2021/01/12 06:33:29;;;;;;;7.13;3.53;;;;;;;-16.45;83.65;100670.09;5001818;28;20054;-64
2021/01/12 06:36:16;;;;;;;5.15;2.45;;;;;;;-16.48;84.18;100666.59;5001277;28;20050;-64
2021/01/12 06:39:03;;;;;;;4.57;2.17;;;;;;;-16.60;83.98;100672.78;4995563;28;20504;-64
2021/01/12 06:41:50;;;;;;;7.40;2.72;;;;;;;-16.62;83.44;100688.50;4991018;28;20047;-64
2021/01/12 06:44:38;;;;;;;8.35;3.75;;;;;;;-16.72;84.19;100678.94;4985477;28;20378;-65
2021/01/12 06:47:27;;;;;;;6.43;2.53;;;;;;;-16.69;84.35;100684.03;4987356;28;20129;-64
2021/01/12 06:50:16;;;;;;;5.45;2.35;;;;;;;-16.69;83.64;100686.53;4991344;28;20405;-64
2021/01/12 06:53:03;;;;;;;6.97;2.58;;;;;;;-16.68;83.94;100680.75;4995095;28;20053;-64
2021/01/12 06:55:49;;;;;;;4.03;2.05;;;;;;;-16.72;83.68;100678.94;4997398;28;20094;-64
2021/01/12 06:58:36;;;;;;;7.18;2.78;;;;;;;-16.78;84.04;100679.53;4994102;28;20066;-64
2021/01/12 07:01:22;;;;;;;5.13;2.42;;;;;;;-16.83;84.02;100683.47;4991306;28;20429;-63
2021/01/12 07:04:20;;;;;;;4.40;1.80;;;;;;;-16.86;83.50;100680.81;4985121;28;20046;-64
2021/01/12 07:07:06;;;;;;;4.93;2.25;;;;;;;-16.85;83.79;100685.03;4993797;28;20116;-64
2021/01/12 07:09:57;;;;;;;5.82;2.08;;;;;;;-16.89;83.49;100684.06;5004933;28;20566;-64
2021/01/12 07:12:44;;;;;;;6.05;3.00;;;;;;;-16.91;84.30;100680.59;4984951;28;20078;-64
2021/01/12 07:15:40;;;;;;;3.03;2.00;;;;;;;-17.01;83.14;100680.13;4994317;28;20061;-64
2021/01/12 07:18:26;;;;;;;5.85;2.38;;;;;;;-16.98;84.11;100685.28;4994101;28;20504;-64
2021/01/12 07:21:15;;;;;;;4.20;2.50;;;;;;;-17.02;84.10;100683.44;4994482;28;20069;-63
2021/01/12 07:24:03;;;;;;;5.13;2.75;;;;;;;-17.00;83.52;100700.19;4991002;28;20051;-64
2021/01/12 07:26:52;;;;;;;7.63;2.55;;;;;;;-17.05;83.38;100699.13;4993991;28;20050;-64
2021/01/12 07:29:47;;;;;;;5.00;2.17;;;;;;;-17.08;83.26;100701.50;4994051;28;20548;-64
2021/01/12 07:32:39;;;;;;;5.07;2.95;;;;;;;-17.08;83.34;100701.50;4989446;28;20058;-64
2021/01/12 07:35:26;;;;;;;3.85;2.10;;;;;;;-17.24;82.83;100704.94;4993976;28;20108;-64
2021/01/12 07:38:31;;;;;;;4.13;2.28;;;;;;;-17.26;82.65;100706.50;4993771;28;20572;-64
2021/01/12 07:41:17;;;;;;;5.53;2.08;;;;;;;-17.26;82.71;100701.50;4988332;28;20050;-64
2021/01/12 07:44:06;;;;;;;3.95;2.40;;;;;;;-17.32;82.95;100701.25;4993805;28;20057;-64
2021/01/12 07:46:58;;;;;;;3.92;2.20;;;;;;;-17.33;83.21;100702.84;4984130;28;20113;-64
2021/01/12 07:49:49;;;;;;;5.38;2.35;;;;;;;-17.37;82.85;100697.66;4992578;28;20724;-64
2021/01/12 07:52:35;;;;;;;3.85;1.77;;;;;;;-17.47;81.75;100700.50;4992683;28;20054;-64
2021/01/12 07:55:22;;;;;;;222.75;94.20;;;;;;;-17.55;81.63;100705.16;4992114;28;20046;-64
2021/01/12 07:58:11;;;;;;;9.75;5.18;;;;;;;-17.64;82.62;100704.69;4992419;28;20062;-64
2021/01/12 08:00:59;;;;;;;390.42;162.90;;;;;;;-17.67;81.85;100705.41;4993500;28;20580;-65
2021/01/12 08:03:55;;;;;;;27.58;14.93;;;;;;;-17.72;82.42;100703.47;4990274;28;20189;-64
2021/01/12 08:06:43;;;;;;;7.18;4.35;;;;;;;-17.79;82.53;100706.50;4993191;28;20055;-63
2021/01/12 08:09:29;;;;;;;5.88;3.28;;;;;;;-17.87;82.92;100711.97;4993301;28;20043;-64
2021/01/12 08:12:20;;;;;;;4.90;2.70;;;;;;;-17.81;83.41;100711.41;4993293;28;20129;-63
2021/01/12 08:15:14;;;;;;;4.25;2.20;;;;;;;-17.85;82.92;100717.91;4986624;28;20106;-64
2021/01/12 08:18:00;;;;;;;4.38;2.15;;;;;;;-17.76;83.58;100721.59;4986927;28;20062;-63
2021/01/12 08:20:54;;;;;;;6.95;2.42;;;;;;;-17.79;82.91;100718.97;5005305;28;20505;-64
2021/01/12 08:23:40;;;;;;;5.47;1.85;;;;;;;-17.87;82.79;100716.09;4986678;28;20046;-64
2021/01/12 08:26:27;;;;;;;5.80;1.90;;;;;;;-17.86;82.59;100715.31;4987487;28;20046;-63
2021/01/12 08:29:19;;;;;;;6.40;3.72;;;;;;;-17.94;81.70;100724.06;4992978;28;20109;-64
2021/01/12 08:32:07;;;;;;;125.72;44.95;;;;;;;-18.01;82.23;100707.06;4993105;28;20054;-63
2021/01/12 08:34:59;;;;;;;8.00;3.15;;;;;;;-17.91;83.25;100719.22;4986998;28;20401;-63
2021/01/12 08:37:47;;;;;;;9.30;3.92;;;;;;;-17.93;82.85;100718.31;4996774;28;20513;-64
2021/01/12 08:40:35;;;;;;;33.33;18.85;;;;;;;-17.96;81.82;100715.66;4992816;28;20058;-64
2021/01/12 08:43:28;;;;;;;4.03;2.28;;;;;;;-17.95;82.47;100710.72;4992857;28;20093;-64
2021/01/12 08:46:16;;;;;;;4.45;1.90;;;;;;;-17.86;83.05;100720.31;4984709;28;20047;-64
2021/01/12 08:49:02;;;;;;;4.32;2.08;;;;;;;-17.93;82.03;100718.31;4989225;28;20124;-64
2021/01/12 08:51:50;;;;;;;4.35;2.15;;;;;;;-17.89;82.99;100715.19;4992462;28;20057;-66
2021/01/12 08:54:37;;;;;;;4.65;2.15;;;;;;;-17.90;82.25;100716.78;4994071;28;20525;-64
2021/01/12 08:57:23;;;;;;;3.80;2.05;;;;;;;-17.86;82.78;100721.16;4990153;28;20549;-64
2021/01/12 09:00:14;;;;;;;4.13;2.17;;;;;;;-17.89;81.25;100721.03;4999539;28;20090;-63
2021/01/12 09:03:03;;;;;;;4.10;1.88;;;;;;;-17.91;81.36;100720.06;4986578;28;20066;-63
2021/01/12 09:05:53;;;;;;;4.90;1.80;;;;;;;-17.82;82.56;100728.81;4982918;28;20051;-64
2021/01/12 09:08:40;;;;;;;5.00;2.00;;;;;;;-17.87;81.44;100721.09;4983158;28;20050;-63
2021/01/12 09:11:28;;;;;;;3.97;2.13;;;;;;;-17.86;82.11;100712.81;4990009;28;20113;-64
2021/01/12 09:14:20;;;;;;;5.07;1.77;;;;;;;-17.89;82.29;100716.03;4992057;28;20101;-64
2021/01/12 09:17:06;;;;;;;3.17;2.05;;;;;;;-17.97;81.94;100719.78;4985525;28;20130;-64
2021/01/12 09:19:53;;;;;;;4.68;1.80;;;;;;;-17.94;81.41;100716.56;4992000;28;20135;-64
2021/01/12 09:22:40;;;;;;;3.50;1.80;;;;;;;-17.95;81.35;100719.84;4985360;28;20054;-64
2021/01/12 09:25:26;;;;;;;2.83;1.65;;;;;;;-17.98;81.38;100719.72;4982686;28;20054;-64
2021/01/12 09:28:17;;;;;;;3.50;1.98;;;;;;;-18.08;81.21;100708.41;4983569;28;20509;-64
2021/01/12 09:31:13;;;;;;;3.80;1.92;;;;;;;-18.13;81.41;100702.34;4986523;28;20073;-63
2021/01/12 09:33:59;;;;;;;4.15;1.95;;;;;;;-18.22;81.13;100700.25;4991518;28;20050;-63
2021/01/12 09:36:46;;;;;;;3.28;1.67;;;;;;;-18.23;81.31;100705.13;5005288;28;21343;-63
2021/01/12 09:39:32;;;;;;;3.60;1.60;;;;;;;-18.19;81.79;100707.00;4991913;28;20575;-64
2021/01/12 09:42:21;;;;;;;3.47;1.83;;;;;;;-18.37;80.81;100700.34;4991914;28;20465;-63
2021/01/12 09:45:16;;;;;;;3.80;1.60;;;;;;;-18.36;81.04;100696.19;4991640;28;20057;-64
2021/01/12 09:48:02;;;;;;;2.97;1.73;;;;;;;-18.28;80.74;100699.91;4985484;28;20043;-64
2021/01/12 09:50:50;;;;;;;4.63;1.63;;;;;;;-18.30;82.22;100708.13;4988019;28;20061;-64
2021/01/12 09:53:42;;;;;;;2.50;1.48;;;;;;;-18.30;81.31;100703.97;4991775;28;20050;-64
2021/01/12 09:56:29;;;;;;;3.33;1.80;;;;;;;-18.30;81.11;100693.16;4988485;28;20058;-63
2021/01/12 09:59:15;;;;;;;2.85;1.83;;;;;;;-18.44;81.00;100693.31;4986654;28;20049;-64
2021/01/12 10:02:02;;;;;;;2.35;1.60;;;;;;;-18.35;81.27;100685.44;4998087;28;20101;-63
2021/01/12 10:04:49;;;;;;;4.05;1.75;;;;;;;-18.32;80.19;100690.59;4989907;28;20073;-64
2021/01/12 10:07:35;;;;;;;3.13;1.58;;;;;;;-18.31;80.54;100688.94;4988889;28;20050;-65
2021/01/12 10:10:22;;;;;;;4.50;2.22;;;;;;;-18.38;80.56;100695.25;4991376;28;20113;-64
2021/01/12 10:13:08;;;;;;;4.47;2.17;;;;;;;-18.45;80.71;100680.75;4991373;28;20053;-65
2021/01/12 10:15:54;;;;;;;3.38;1.85;;;;;;;-18.58;80.65;100683.41;4990644;28;20050;-64
2021/01/12 10:18:41;;;;;;;2.15;1.15;;;;;;;-18.50;80.08;100678.03;4991398;28;20057;-64
2021/01/12 10:21:29;;;;;;;2.47;1.70;;;;;;;-18.46;81.61;100677.41;5003047;28;20398;-64
2021/01/12 10:24:15;;;;;;;4.20;2.08;;;;;;;-18.52;79.94;100679.56;4988724;28;20094;-64
2021/01/12 10:27:04;;;;;;;2.78;1.73;;;;;;;-18.40;80.22;100675.22;4995133;28;20050;-65
2021/01/12 10:29:51;;;;;;;4.25;1.90;;;;;;;-18.41;81.10;100676.00;4988457;28;20081;-65
2021/01/12 10:32:41;;;;;;;4.07;1.90;;;;;;;-18.57;80.65;100672.66;4995311;28;20197;-64
2021/01/12 10:35:27;;;;;;;3.92;1.90;;;;;;;-18.57;79.60;100675.13;4995329;28;20050;-64
2021/01/12 10:38:14;;;;;;;2.67;1.30;;;;;;;-18.49;80.54;100668.91;4991846;28;20082;-64
2021/01/12 10:41:00;;;;;;;6.13;1.85;;;;;;;-18.49;80.83;100668.91;4992308;28;20046;-64
2021/01/12 10:43:50;;;;;;;2.47;1.50;;;;;;;-18.59;80.65;100660.09;4979972;28;20078;-64
2021/01/12 10:46:37;;;;;;;3.10;1.52;;;;;;;-18.48;80.37;100665.63;4991417;28;20112;-64
2021/01/12 10:49:24;;;;;;;2.63;1.25;;;;;;;-18.53;80.74;100672.88;4994841;28;20513;-65
2021/01/12 10:52:10;;;;;;;4.03;1.40;;;;;;;-18.54;80.63;100667.81;5005840;28;20397;-64
2021/01/12 10:54:56;;;;;;;8.13;3.10;;;;;;;-18.53;80.14;100669.53;4980221;28;20058;-65
2021/01/12 10:57:45;;;;;;;3.15;1.58;;;;;;;-18.63;80.37;100665.72;4994501;28;20225;-64
2021/01/12 11:00:32;;;;;;;6.63;2.58;;;;;;;-18.64;80.41;100659.88;4988019;28;20054;-64
2021/01/12 11:03:19;;;;;;;3.50;1.90;;;;;;;-18.62;80.89;100669.91;4988029;28;20146;-64
2021/01/12 11:06:09;;;;;;;4.35;2.13;;;;;;;-18.67;81.17;100664.69;4993340;28;20046;-64
2021/01/12 11:08:57;;;;;;;6.97;1.95;;;;;;;-18.57;80.61;100666.03;4991695;28;20062;-65
2021/01/12 11:11:47;;;;;;;3.33;1.60;;;;;;;-18.58;81.43;100669.28;4994401;28;20537;-64
2021/01/12 11:14:35;;;;;;;5.28;2.13;;;;;;;-18.74;80.22;100664.34;5004721;28;20405;-65
2021/01/12 11:17:27;;;;;;;13.45;5.45;;;;;;;-18.74;80.15;100667.69;4994375;28;20062;-64
2021/01/12 11:20:16;;;;;;;5.70;2.30;;;;;;;-18.70;80.82;100671.19;4993927;28;20069;-64
2021/01/12 11:23:02;;;;;;;4.68;1.67;;;;;;;-18.71;80.30;100664.50;4994272;28;20078;-64
2021/01/12 11:25:52;;;;;;;4.78;1.90;;;;;;;-18.79;80.45;100675.72;5002299;28;20058;-64
2021/01/12 11:28:39;;;;;;;3.55;1.50;;;;;;;-18.79;80.87;100664.13;4988299;28;20086;-66
2021/01/12 11:31:27;;;;;;;3.92;1.77;;;;;;;-18.85;79.94;100648.81;5000765;28;20070;-64
2021/01/12 11:34:14;;;;;;;2.03;1.40;;;;;;;-18.95;80.26;100657.47;4987513;28;20046;-64
2021/01/12 11:37:01;;;;;;;3.22;1.73;;;;;;;-19.06;80.31;100658.53;4987222;28;20051;-64
2021/01/12 11:39:48;;;;;;;2.53;1.42;;;;;;;-19.08;81.53;100655.13;4992546;28;20105;-64
2021/01/12 11:42:34;;;;;;;3.65;2.17;;;;;;;-19.14;81.67;100655.63;4990171;28;20092;-66
2021/01/12 11:45:21;;;;;;;2.20;1.40;;;;;;;-19.08;81.89;100665.09;4988152;28;20490;-65
2021/01/12 11:48:08;;;;;;;2.63;1.40;;;;;;;-19.05;81.38;100664.38;5000832;28;20482;-65
2021/01/12 11:50:54;;;;;;;2.38;1.48;;;;;;;-19.04;81.31;100659.47;4979935;28;20046;-64
2021/01/12 11:53:41;;;;;;;3.28;1.65;;;;;;;-18.99;81.57;100669.66;4990575;28;20568;-63
2021/01/12 11:56:27;;;;;;;3.25;1.75;;;;;;;-18.99;81.96;100677.16;4988958;28;21545;-65
2021/01/12 11:59:14;;;;;;;2.90;1.63;;;;;;;-18.98;81.67;100667.28;4990663;28;20058;-64
2021/01/12 12:02:00;;;;;;;2.78;1.75;;;;;;;-19.02;82.24;100667.91;4987298;28;20494;-64
2021/01/12 12:04:48;;;;;;;4.07;1.60;;;;;;;-19.11;80.98;100666.56;4987267;28;20382;-66
2021/01/12 12:07:34;;;;;;;3.30;1.60;;;;;;;-19.27;80.23;100660.75;4991865;28;20055;-64
2021/01/12 12:10:20;;;;;;;3.58;1.70;;;;;;;-19.28;80.87;100651.56;5006791;28;20117;-65
2021/01/12 12:13:07;;;;;;;2.83;1.70;;;;;;;-19.37;81.35;100652.69;4984591;28;20050;-64
2021/01/12 12:15:57;;;;;;;3.25;1.40;;;;;;;-19.27;82.54;100655.78;4992946;28;20124;-65
2021/01/12 12:18:45;;;;;;;2.78;1.65;;;;;;;-19.34;82.32;100656.22;4993074;28;20055;-65
2021/01/12 12:21:35;;;;;;;2.72;1.60;;;;;;;-19.36;82.31;100654.44;4993132;28;20046;-64
2021/01/12 12:24:24;;;;;;;5.88;1.40;;;;;;;-19.32;82.17;100652.16;4997819;28;20078;-65
2021/01/12 12:27:18;;;;;;;2.38;1.38;;;;;;;-19.33;80.97;100652.94;4989679;28;20121;-64
2021/01/12 12:30:05;;;;;;;2.47;1.42;;;;;;;-19.36;82.43;100647.81;4992116;28;20642;-65
2021/01/12 12:32:52;;;;;;;3.97;2.35;;;;;;;-19.45;81.91;100650.66;4989969;28;20086;-65
2021/01/12 12:35:38;;;;;;;3.38;1.48;;;;;;;-19.46;82.11;100655.53;4986526;28;20180;-65
2021/01/12 12:38:24;;;;;;;3.90;1.45;;;;;;;-19.51;81.75;100652.84;4988435;28;20050;-64
2021/01/12 12:41:13;;;;;;;3.88;1.75;;;;;;;-19.46;82.73;100660.53;4989257;28;20058;-64
2021/01/12 12:44:00;;;;;;;3.15;1.45;;;;;;;-19.48;81.90;100669.56;4992111;28;20100;-65
2021/01/12 12:46:48;;;;;;;2.70;1.63;;;;;;;-19.48;82.17;100657.97;5000295;28;20073;-65
2021/01/12 12:49:35;;;;;;;1.52;1.15;;;;;;;-19.49;82.53;100667.84;4984655;28;20058;-64
2021/01/12 12:52:24;;;;;;;2.50;1.60;;;;;;;-19.52;81.83;100663.53;4992796;28;20082;-64